Time;durP1;ratioP1;P1;durP2;ratioP2;P2;SDS_P1;SDS_P2;PMS_P1;PMS_P2;Temp;Humidity;BMP_temperature;BMP_pressure;BME280_temperature;BME280_humidity;BME280_pressure;Samples;Min_cycle;Max_cycle;Signal;HPM_P1;HPM_P2
2022/11/25 00:01:08;;;;;;;;;;;;;;;18.98;62.44;100491.84;7403128;19;1455;-63
2022/11/25 00:03:37;;;;;;;;;;;;;;;18.97;62.69;100500.88;7406348;19;1429;-63
2022/11/25 00:06:13;;;;;;;;;;;;;;;18.93;62.79;100493.25;7406501;19;1579;-62
2022/11/25 00:08:42;;;;;;;;;;;;;;;18.88;62.79;100496.38;7407261;19;1394;-63
2022/11/25 00:11:14;;;;;;;;;;;;;;;18.88;62.73;100481.13;7407326;19;1232;-63
2022/11/25 00:13:43;;;;;;;;;;;;;;;18.90;62.54;100498.88;7405122;19;1853;-63
2022/11/25 00:16:12;;;;;;;;;;;;;;;18.90;62.40;100494.41;7405774;19;1465;-63
2022/11/25 00:18:41;;;;;;;;;;;;;;;18.92;62.14;100492.44;7405604;19;1466;-63
2022/11/25 00:21:10;;;;;;;;;;;;;;;18.96;61.88;100503.69;7406477;19;1280;-63
2022/11/25 00:23:38;;;;;;;;;;;;;;;18.94;61.97;100489.56;7406447;19;1308;-63
2022/11/25 00:26:07;;;;;;;;;;;;;;;18.94;61.91;100506.53;7405319;19;1973;-63
2022/11/25 00:28:38;;;;;;;;;;;;;;;18.94;61.53;100511.88;7405356;19;1730;-63
2022/11/25 00:31:08;;;;;;;;;;;;;;;18.87;61.81;100495.50;7405405;19;1450;-63
2022/11/25 00:33:36;;;;;;;;;;;;;;;18.88;61.65;100502.56;7404577;19;1875;-63
2022/11/25 00:36:05;;;;;;;;;;;;;;;18.87;61.59;100506.22;7405694;19;1505;-60
2022/11/25 00:38:34;;;;;;;;;;;;;;;18.86;61.57;100498.31;7406401;19;1307;-59
2022/11/25 00:46:26;;;;;;;;;;;;;;;18.88;61.19;100507.09;7405364;19;1417;-60
2022/11/25 00:48:54;;;;;;;;;;;;;;;18.84;61.43;100497.63;7404757;19;1683;-59
2022/11/25 00:51:23;;;;;;;;;;;;;;;18.81;61.38;100519.34;7405370;19;1473;-59
2022/11/25 00:53:51;;;;;;;;;;;;;;;18.81;61.37;100505.94;7404434;19;1843;-59
2022/11/25 00:56:22;;;;;;;;;;;;;;;18.80;61.59;100509.59;7405703;19;1263;-59
2022/11/25 00:58:54;;;;;;;;;;;;;;;18.81;61.24;100508.63;7404921;19;1221;-59
2022/11/25 01:01:23;;;;;;;;;;;;;;;18.83;61.22;100526.25;7399289;19;1544;-60
2022/11/25 01:03:51;;;;;;;;;;;;;;;18.78;61.04;100512.41;7403792;19;1505;-60
2022/11/25 01:06:20;;;;;;;;;;;;;;;18.74;61.43;100515.50;7405136;19;1296;-59
2022/11/25 01:08:48;;;;;;;;;;;;;;;18.81;60.70;100514.81;7404322;19;1311;-59
2022/11/25 01:11:18;;;;;;;;;;;;;;;18.77;60.95;100512.53;7403883;19;1153;-59
2022/11/25 01:13:47;;;;;;;;;;;;;;;18.81;61.02;100522.03;7403075;19;1849;-59
2022/11/25 01:16:19;;;;;;;;;;;;;;;18.77;60.68;100521.41;7404316;19;1497;-59
2022/11/25 01:18:49;;;;;;;;;;;;;;;18.80;60.40;100520.31;7403973;19;1719;-59
2022/11/25 01:21:19;;;;;;;;;;;;;;;18.81;60.61;100519.34;7404203;19;1446;-60
2022/11/25 01:23:47;;;;;;;;;;;;;;;18.78;60.80;100524.94;7404474;19;1298;-59
2022/11/25 01:26:17;;;;;;;;;;;;;;;18.79;60.68;100535.56;7404558;19;1346;-59
2022/11/25 01:28:45;;;;;;;;;;;;;;;18.82;60.64;100527.25;7404212;19;1765;-60
2022/11/25 01:31:15;;;;;;;;;;;;;;;18.81;60.24;100528.22;7404260;19;1477;-60
2022/11/25 01:33:47;;;;;;;;;;;;;;;18.80;60.30;100537.25;7403686;19;1854;-59
2022/11/25 01:36:16;;;;;;;;;;;;;;;18.83;60.21;100531.59;7404063;19;1564;-59
2022/11/25 01:38:45;;;;;;;;;;;;;;;18.80;60.40;100526.53;7403605;19;1304;-59
2022/11/25 01:41:14;;;;;;;;;;;;;;;18.73;60.39;100519.16;7404138;19;1346;-60
2022/11/25 01:43:43;;;;;;;;;;;;;;;18.72;60.90;100504.06;7403281;19;1683;-59
2022/11/25 01:46:20;;;;;;;;;;;;;;;18.74;60.08;100520.84;7403170;19;1465;-59
2022/11/25 01:48:53;;;;;;;;;;;;;;;18.69;60.21;100523.97;7403458;19;1526;-60
2022/11/25 01:51:23;;;;;;;;;;;;;;;18.67;60.15;100521.41;7403976;19;1549;-59
2022/11/25 01:53:52;;;;;;;;;;;;;;;18.74;60.00;100510.13;7402633;19;1843;-59
2022/11/25 01:56:21;;;;;;;;;;;;;;;18.69;60.39;100523.97;7403169;19;1275;-60
2022/11/25 01:58:50;;;;;;;;;;;;;;;18.67;60.41;100526.75;7402096;19;1354;-59
2022/11/25 02:01:20;;;;;;;;;;;;;;;18.79;60.79;100513.25;7401812;19;1464;-60
2022/11/25 02:03:54;;;;;;;;;;;;;;;19.30;60.32;100533.59;7403229;19;1405;-59
2022/11/25 02:06:24;;;;;;;;;;;;;;;19.69;60.59;100517.38;7403196;19;1563;-59
2022/11/25 02:08:54;;;;;;;;;;;;;;;19.74;60.52;100547.34;7403000;19;1333;-59
2022/11/25 02:11:24;;;;;;;;;;;;;;;19.83;60.68;100543.78;7403345;19;1469;-59
2022/11/25 02:13:53;;;;;;;;;;;;;;;19.95;60.51;100528.34;7403210;19;1850;-59
2022/11/25 02:16:21;;;;;;;;;;;;;;;20.01;60.15;100526.91;7402432;19;1493;-60
2022/11/25 02:18:52;;;;;;;;;;;;;;;20.10;60.28;100531.41;7402364;19;1651;-59
2022/11/25 02:21:25;;;;;;;;;;;;;;;20.17;59.89;100532.47;7402518;19;1560;-59
2022/11/25 02:23:57;;;;;;;;;;;;;;;20.18;60.10;100528.81;7406942;19;1382;-59
2022/11/25 02:26:28;;;;;;;;;;;;;;;20.14;60.00;100522.03;7411015;19;1449;-59
2022/11/25 02:28:57;;;;;;;;;;;;;;;20.36;59.64;100541.44;7409224;19;1500;-59
2022/11/25 02:31:25;;;;;;;;;;;;;;;20.53;59.19;100531.72;7409266;19;1580;-59
2022/11/25 02:33:54;;;;;;;;;;;;;;;20.39;59.63;100520.50;7408501;19;1865;-59
2022/11/25 02:36:24;;;;;;;;;;;;;;;20.26;60.02;100554.91;7410119;19;1552;-59
2022/11/25 02:38:53;;;;;;;;;;;;;;;20.19;60.27;100537.69;7409957;19;1378;-59
2022/11/25 02:41:24;;;;;;;;;;;;;;;20.14;60.34;100559.63;7409573;19;1271;-60
2022/11/25 02:43:55;;;;;;;;;;;;;;;20.13;60.58;100560.59;7410384;19;1272;-59
2022/11/25 02:46:25;;;;;;;;;;;;;;;20.14;60.35;100532.78;7409054;19;1468;-59
2022/11/25 02:48:54;;;;;;;;;;;;;;;20.11;60.20;100549.16;7409488;19;1683;-59
2022/11/25 02:51:25;;;;;;;;;;;;;;;20.09;60.47;100543.09;7408551;19;1828;-60
2022/11/25 02:53:55;;;;;;;;;;;;;;;20.14;60.18;100554.25;7409193;19;1860;-60
2022/11/25 02:56:25;;;;;;;;;;;;;;;20.12;60.33;100553.56;7409524;19;1536;-60
2022/11/25 02:58:56;;;;;;;;;;;;;;;20.14;60.57;100559.63;7408448;19;1271;-60
2022/11/25 03:01:24;;;;;;;;;;;;;;;20.17;60.18;100562.00;7407245;19;1501;-59
2022/11/25 03:03:52;;;;;;;;;;;;;;;20.14;59.92;100554.25;7407298;19;1386;-59
2022/11/25 03:06:21;;;;;;;;;;;;;;;20.20;59.86;100559.03;7408133;19;1560;-59
2022/11/25 03:08:49;;;;;;;;;;;;;;;20.18;59.96;100571.75;7408532;19;1311;-59
2022/11/25 03:11:17;;;;;;;;;;;;;;;20.17;60.01;100553.94;7409268;19;1334;-60
2022/11/25 03:13:43;;;;;;;;;;;;;;;20.21;60.28;100571.47;7408152;19;1856;-60
2022/11/25 03:16:14;;;;;;;;;;;;;;;20.27;60.02;100576.25;7407695;19;1543;-60
2022/11/25 03:18:42;;;;;;;;;;;;;;;20.24;59.95;100570.31;7407902;19;1573;-59
2022/11/25 03:21:11;;;;;;;;;;;;;;;20.23;59.89;100584.72;7408667;19;1267;-60
2022/11/25 03:23:39;;;;;;;;;;;;;;;20.33;59.85;100584.69;7408901;19;1308;-60
2022/11/25 03:26:08;;;;;;;;;;;;;;;20.32;59.60;100583.84;7407300;19;1679;-59
2022/11/25 03:28:36;;;;;;;;;;;;;;;20.39;59.41;100578.72;7405102;19;1608;-60
2022/11/25 03:31:04;;;;;;;;;;;;;;;20.36;59.53;100579.03;7407511;19;1589;-60
2022/11/25 03:33:35;;;;;;;;;;;;;;;20.35;59.27;100588.06;7406616;19;1390;-60
2022/11/25 03:36:04;;;;;;;;;;;;;;;20.27;60.08;100576.25;7403064;19;1845;-59
2022/11/25 03:38:32;;;;;;;;;;;;;;;20.19;61.02;100605.69;7408390;19;1401;-59
2022/11/25 03:41:00;;;;;;;;;;;;;;;20.44;61.52;100587.19;7404491;19;1770;-60
2022/11/25 03:43:28;;;;;;;;;;;;;;;20.61;61.42;100582.88;7407086;19;1717;-60
2022/11/25 03:45:57;;;;;;;;;;;;;;;20.73;60.86;100599.63;7406788;19;1756;-60
2022/11/25 03:48:25;;;;;;;;;;;;;;;20.87;60.33;100607.19;7407202;19;1418;-60
2022/11/25 03:50:56;;;;;;;;;;;;;;;20.91;59.84;100595.16;7407851;19;1369;-60
2022/11/25 03:53:24;;;;;;;;;;;;;;;20.94;59.68;100588.63;7407183;19;1473;-60
2022/11/25 03:55:53;;;;;;;;;;;;;;;20.90;59.65;100592.59;7404254;19;1861;-60
2022/11/25 03:58:21;;;;;;;;;;;;;;;20.89;59.52;100590.91;7405043;19;1555;-60
2022/11/25 04:00:49;;;;;;;;;;;;;;;20.86;59.79;100592.06;7405439;19;1452;-60
2022/11/25 04:03:17;;;;;;;;;;;;;;;20.89;59.44;100589.09;7404874;19;1239;-60
2022/11/25 04:05:46;;;;;;;;;;;;;;;20.87;59.60;100588.38;7405733;19;1540;-60
2022/11/25 04:08:17;;;;;;;;;;;;;;;20.58;60.63;100588.53;7406673;19;1583;-60
2022/11/25 04:10:45;;;;;;;;;;;;;;;20.37;61.50;100596.81;7406284;19;1701;-60
2022/11/25 04:13:11;;;;;;;;;;;;;;;20.32;61.87;100591.06;7406409;19;1353;-60
2022/11/25 04:15:39;;;;;;;;;;;;;;;20.27;61.83;100603.09;7405114;19;1846;-60
2022/11/25 04:18:07;;;;;;;;;;;;;;;20.36;61.50;100616.63;7404638;19;1505;-60
2022/11/25 04:20:36;;;;;;;;;;;;;;;20.36;61.90;100608.59;7406153;19;1298;-60
2022/11/25 04:23:05;;;;;;;;;;;;;;;20.28;62.24;100609.31;7405573;19;1508;-60
2022/11/25 04:25:36;;;;;;;;;;;;;;;20.34;62.06;100615.94;7406203;19;1351;-60
2022/11/25 04:28:05;;;;;;;;;;;;;;;20.35;62.14;100628.34;7405344;19;1318;-60
2022/11/25 04:30:34;;;;;;;;;;;;;;;20.40;61.96;100623.41;7405806;19;1444;-60
2022/11/25 04:33:02;;;;;;;;;;;;;;;20.34;62.42;100629.38;7404879;19;1497;-60
2022/11/25 04:35:31;;;;;;;;;;;;;;;20.40;62.03;100628.78;7405300;19;1860;-60
2022/11/25 04:37:59;;;;;;;;;;;;;;;20.37;62.14;100645.16;7404753;19;1587;-60
2022/11/25 04:40:27;;;;;;;;;;;;;;;20.35;62.21;100631.91;7405367;19;1552;-60
2022/11/25 04:42:58;;;;;;;;;;;;;;;20.39;62.47;100637.81;7405550;19;1370;-60
2022/11/25 04:45:26;;;;;;;;;;;;;;;20.34;62.25;100656.22;7404988;19;1450;-60
2022/11/25 04:47:55;;;;;;;;;;;;;;;20.34;62.45;100653.53;7403673;19;1595;-60
2022/11/25 04:50:24;;;;;;;;;;;;;;;20.35;62.61;100653.41;7406041;19;1292;-60
2022/11/25 04:52:52;;;;;;;;;;;;;;;20.39;62.62;100664.66;7404794;19;1592;-61
2022/11/25 04:55:21;;;;;;;;;;;;;;;20.41;62.52;100662.69;7404096;19;1862;-60
2022/11/25 04:57:49;;;;;;;;;;;;;;;20.37;62.63;100655.91;7403434;19;1300;-61
2022/11/25 05:00:18;;;;;;;;;;;;;;;20.39;62.46;100675.41;7404989;19;1606;-60
2022/11/25 05:02:46;;;;;;;;;;;;;;;20.32;62.75;100668.94;7402070;19;1501;-60
2022/11/25 05:05:15;;;;;;;;;;;;;;;20.33;62.68;100678.69;7405456;19;1473;-60
2022/11/25 05:07:43;;;;;;;;;;;;;;;20.37;62.70;100678.25;7403778;19;1713;-60
2022/11/25 05:10:11;;;;;;;;;;;;;;;20.29;63.12;100680.81;7404398;19;1481;-60
2022/11/25 05:12:40;;;;;;;;;;;;;;;20.37;62.78;100682.78;7404036;19;1321;-60
2022/11/25 05:15:09;;;;;;;;;;;;;;;20.47;62.52;100694.31;7403480;19;1862;-60
2022/11/25 05:17:40;;;;;;;;;;;;;;;20.40;62.50;100699.44;7403390;19;1508;-61
2022/11/25 05:20:09;;;;;;;;;;;;;;;20.34;63.02;100699.19;7405517;19;1370;-60
2022/11/25 05:22:38;;;;;;;;;;;;;;;20.42;62.62;100715.41;7403275;19;1599;-60
2022/11/25 05:25:07;;;;;;;;;;;;;;;20.43;62.53;100703.66;7403436;19;1600;-60
2022/11/25 05:27:36;;;;;;;;;;;;;;;20.47;62.72;100702.38;7403354;19;1355;-60
2022/11/25 05:30:04;;;;;;;;;;;;;;;20.43;62.83;100692.91;7403958;19;1477;-60
2022/11/25 05:32:32;;;;;;;;;;;;;;;20.50;62.57;100703.94;7404966;19;1338;-60
2022/11/25 05:35:03;;;;;;;;;;;;;;;20.43;62.96;100698.28;7403351;19;1847;-60
2022/11/25 05:37:31;;;;;;;;;;;;;;;20.45;62.54;100712.44;7402604;19;1497;-60
2022/11/25 05:40:00;;;;;;;;;;;;;;;20.42;63.17;100718.09;7403520;19;1473;-60
2022/11/25 05:42:30;;;;;;;;;;;;;;;20.42;63.19;100710.03;7402530;19;1354;-60
2022/11/25 05:45:00;;;;;;;;;;;;;;;20.49;62.68;100721.88;7403983;19;1505;-60
2022/11/25 05:47:28;;;;;;;;;;;;;;;20.47;62.75;100723.88;7404726;19;1430;-60
2022/11/25 05:49:56;;;;;;;;;;;;;;;20.41;62.81;100737.88;7402104;19;1556;-60
2022/11/25 05:52:27;;;;;;;;;;;;;;;20.41;63.28;100732.50;7403745;19;1406;-60
2022/11/25 05:54:55;;;;;;;;;;;;;;;20.42;62.80;100734.22;7402509;19;1857;-60
2022/11/25 05:57:24;;;;;;;;;;;;;;;20.43;63.34;100746.63;7403145;19;1371;-60
2022/11/25 05:59:52;;;;;;;;;;;;;;;20.40;63.31;100760.38;7408981;19;1374;-60
2022/11/25 06:02:20;;;;;;;;;;;;;;;20.40;63.25;100773.81;7406990;19;1707;-60
2022/11/25 06:04:49;;;;;;;;;;;;;;;20.40;63.12;100771.97;7410777;19;1791;-60
2022/11/25 06:07:17;;;;;;;;;;;;;;;20.48;63.15;100773.09;7410594;19;1730;-60
2022/11/25 06:09:48;;;;;;;;;;;;;;;20.52;62.69;100782.56;7409941;19;1436;-60
2022/11/25 06:12:16;;;;;;;;;;;;;;;20.45;63.13;100767.00;7410513;19;1656;-60
2022/11/25 06:14:44;;;;;;;;;;;;;;;20.41;63.64;100786.22;7410496;19;1874;-60
2022/11/25 06:17:13;;;;;;;;;;;;;;;20.13;64.72;100794.19;7409496;19;1682;-60
2022/11/25 06:19:41;;;;;;;;;;;;;;;19.93;65.20;100793.34;7409784;19;1498;-61
2022/11/25 06:22:09;;;;;;;;;;;;;;;19.85;65.15;100807.44;7402314;19;1248;-62
2022/11/25 06:24:37;;;;;;;;;;;;;;;19.80;65.42;100798.16;7406256;19;1584;-60
2022/11/25 06:27:08;;;;;;;;;;;;;;;19.74;65.33;100799.56;7408249;19;1560;-59
2022/11/25 06:29:37;;;;;;;;;;;;;;;19.68;66.04;100800.91;7409051;19;1458;-59
2022/11/25 06:32:05;;;;;;;;;;;;;;;19.64;66.19;100822.81;7410422;19;1637;-61
2022/11/25 06:34:35;;;;;;;;;;;;;;;19.61;66.44;100805.13;7407155;19;1486;-61
2022/11/25 06:37:03;;;;;;;;;;;;;;;19.51;65.92;100809.63;7398604;19;1855;-61
2022/11/25 06:39:31;;;;;;;;;;;;;;;19.50;66.21;100817.81;7403918;19;1438;-60
2022/11/25 06:42:00;;;;;;;;;;;;;;;19.55;66.75;100815.56;7404203;19;1486;-60
2022/11/25 06:44:31;;;;;;;;;;;;;;;19.58;67.22;100812.63;7402927;19;1441;-71
2022/11/25 06:46:59;;;;;;;;;;;;;;;19.57;67.78;100822.50;7404255;19;1268;-61
2022/11/25 06:49:28;;;;;;;;;;;;;;;19.61;67.79;100809.66;7407026;19;1706;-66
2022/11/25 06:51:56;;;;;;;;;;;;;;;19.52;67.67;100805.09;7405287;19;1592;-59
2022/11/25 06:54:24;;;;;;;;;;;;;;;19.55;68.02;100812.91;7406677;19;1687;-60
2022/11/25 06:56:53;;;;;;;;;;;;;;;19.43;67.84;100813.00;7401545;19;1851;-59
2022/11/25 06:59:21;;;;;;;;;;;;;;;19.40;67.26;100815.13;7405884;19;1703;-58
2022/11/25 07:01:52;;;;;;;;;;;;;;;19.32;67.06;100837.25;7404557;19;1608;-70
2022/11/25 07:04:20;;;;;;;;;;;;;;;19.31;67.00;100806.06;7406830;19;1639;-62
2022/11/25 07:06:50;;;;;;;;;;;;;;;19.36;67.94;100825.28;7401372;19;1659;-65
2022/11/25 07:09:18;;;;;;;;;;;;;;;19.45;67.73;100819.06;7406805;19;1619;-59
2022/11/25 07:11:47;;;;;;;;;;;;;;;19.37;67.83;100845.72;7405950;19;1545;-60
2022/11/25 07:14:17;;;;;;;;;;;;;;;19.35;68.02;100841.50;7406407;19;1446;-59
2022/11/25 07:16:46;;;;;;;;;;;;;;;19.27;68.89;100844.84;7404939;19;1855;-57
2022/11/25 07:19:18;;;;;;;;;;;;;;;19.28;68.12;100852.75;7409338;19;1281;-57
2022/11/25 07:21:47;;;;;;;;;;;;;;;19.34;68.51;100861.25;7405632;19;1350;-58
2022/11/25 07:24:16;;;;;;;;;;;;;;;19.30;68.49;100858.00;7296626;19;15515;-58
2022/11/25 07:26:45;;;;;;;;;;;;;;;19.26;68.79;100853.91;7405125;19;1463;-57
2022/11/25 07:29:14;;;;;;;;;;;;;;;19.22;68.35;100864.03;7407310;19;1529;-59
2022/11/25 07:31:44;;;;;;;;;;;;;;;19.19;69.06;100871.50;7406866;19;1447;-57
2022/11/25 07:34:13;;;;;;;;;;;;;;;19.23;69.11;100872.91;7406445;19;1722;-62
2022/11/25 07:36:45;;;;;;;;;;;;;;;19.18;69.30;100856.38;7403565;19;1852;-65
2022/11/25 07:39:14;;;;;;;;;;;;;;;19.35;68.95;100877.19;7406342;19;1659;-65
2022/11/25 07:41:43;;;;;;;;;;;;;;;19.43;68.82;100882.72;7404158;19;1589;-59
2022/11/25 07:44:13;;;;;;;;;;;;;;;19.32;69.47;100885.53;7407072;19;1390;-61
2022/11/25 07:46:42;;;;;;;;;;;;;;;19.34;68.84;100896.97;7407534;19;1474;-67
2022/11/25 07:49:13;;;;;;;;;;;;;;;19.32;69.09;100896.25;7404606;19;1306;-58
2022/11/25 07:51:42;;;;;;;;;;;;;;;19.28;69.29;100901.03;7406106;19;1707;-60
2022/11/25 07:54:14;;;;;;;;;;;;;;;19.28;69.88;100884.94;7406290;19;1347;-58
2022/11/25 07:56:43;;;;;;;;;;;;;;;19.35;69.55;100892.44;7403334;19;1855;-60
2022/11/25 07:59:13;;;;;;;;;;;;;;;19.36;69.48;100897.69;7404082;19;1311;-59
2022/11/25 08:01:42;;;;;;;;;;;;;;;19.33;69.67;100903.28;7348393;19;13133;-60
2022/11/25 08:04:10;;;;;;;;;;;;;;;19.27;69.71;100888.59;7405269;19;1602;-59
2022/11/25 08:06:41;;;;;;;;;;;;;;;19.27;69.42;100917.25;7404794;19;1312;-59
2022/11/25 08:09:10;;;;;;;;;;;;;;;19.35;69.56;100901.34;7400775;19;1336;-58
2022/11/25 08:11:41;;;;;;;;;;;;;;;20.22;66.95;100900.75;7398203;19;1255;-59
2022/11/25 08:14:10;;;;;;;;;;;;;;;20.63;64.58;100893.44;7399376;19;1264;-58
2022/11/25 08:16:39;;;;;;;;;;;;;;;20.85;61.31;100902.16;7400992;19;1872;-59
2022/11/25 08:19:10;;;;;;;;;;;;;;;20.60;63.36;100904.44;7404179;19;1127;-60
2022/11/25 08:21:38;;;;;;;;;;;;;;;20.83;63.00;100921.13;7398824;19;1323;-60
2022/11/25 08:24:07;;;;;;;;;;;;;;;20.94;63.02;100921.94;7391368;19;1390;-59
2022/11/25 08:26:38;;;;;;;;;;;;;;;20.77;63.69;100918.13;7392550;19;1457;-60
2022/11/25 08:29:09;;;;;;;;;;;;;;;20.31;64.67;100925.06;7404401;19;1570;-59
2022/11/25 08:31:38;;;;;;;;;;;;;;;20.01;65.62;100925.00;7403472;19;1553;-61
2022/11/25 08:34:07;;;;;;;;;;;;;;;19.90;66.09;100924.31;7400598;19;1625;-62
2022/11/25 08:36:37;;;;;;;;;;;;;;;19.70;66.91;100916.16;7402692;19;1864;-62
2022/11/25 08:39:07;;;;;;;;;;;;;;;19.73;67.26;100925.78;7403500;19;1545;-61
2022/11/25 08:41:37;;;;;;;;;;;;;;;19.71;67.41;100920.56;7403730;19;1442;-64
2022/11/25 08:44:07;;;;;;;;;;;;;;;19.74;67.24;100935.56;7404001;19;1461;-60
2022/11/25 08:46:39;;;;;;;;;;;;;;;19.61;67.64;100935.75;7402585;19;1604;-59
2022/11/25 08:49:09;;;;;;;;;;;;;;;19.53;67.61;100946.28;7404915;19;1655;-61
2022/11/25 08:51:41;;;;;;;;;;;;;;;19.40;67.70;100933.97;7401814;19;1580;-60
2022/11/25 08:54:10;;;;;;;;;;;;;;;19.26;66.74;100940.53;7400885;19;1688;-68
2022/11/25 08:56:38;;;;;;;;;;;;;;;19.18;67.05;100931.44;7402769;19;1858;-61
2022/11/25 08:59:07;;;;;;;;;;;;;;;19.25;65.33;100937.97;7402935;19;1351;-61
2022/11/25 09:01:37;;;;;;;;;;;;;;;19.23;67.41;100934.59;7402180;19;1629;-61
2022/11/25 09:04:06;;;;;;;;;;;;;;;19.25;66.05;100929.94;7402176;19;1609;-61
2022/11/25 09:06:34;;;;;;;;;;;;;;;19.31;66.26;100948.16;7403307;19;1620;-61
2022/11/25 09:09:04;;;;;;;;;;;;;;;19.35;66.42;100952.28;7403174;19;1474;-66
2022/11/25 09:11:33;;;;;;;;;;;;;;;19.46;66.76;100929.91;7402420;19;1640;-61
2022/11/25 09:14:01;;;;;;;;;;;;;;;19.51;67.24;100934.84;7401662;19;1287;-62
2022/11/25 09:16:29;;;;;;;;;;;;;;;19.41;66.83;100943.69;7402612;19;1842;-60
2022/11/25 09:19:01;;;;;;;;;;;;;;;19.42;67.35;100947.25;7402011;19;1652;-60
2022/11/25 09:21:29;;;;;;;;;;;;;;;19.43;67.52;100935.53;7402989;19;1347;-60
2022/11/25 09:23:57;;;;;;;;;;;;;;;19.43;67.73;100954.28;7404236;19;1319;-61
2022/11/25 09:26:26;;;;;;;;;;;;;;;19.48;67.98;100941.34;7402021;19;1463;-59
2022/11/25 09:28:55;;;;;;;;;;;;;;;19.39;68.15;100945.66;7403864;19;1526;-61
2022/11/25 09:31:24;;;;;;;;;;;;;;;19.25;67.82;100938.81;7402056;19;1606;-61
2022/11/25 09:33:52;;;;;;;;;;;;;;;19.25;67.68;100937.97;7410522;19;1511;-71
2022/11/25 09:36:23;;;;;;;;;;;;;;;19.28;67.94;100943.09;7409619;19;1869;-73
2022/11/25 09:38:52;;;;;;;;;;;;;;;19.28;68.18;100943.09;7408949;19;1268;-74
2022/11/25 09:46:59;;;;;;;;;;;;;;;19.40;66.96;100935.81;7410450;19;1315;-66
2022/11/25 09:49:36;;;;;;;;;;;;;;;19.39;67.57;100944.81;7410348;19;1466;-58
2022/11/25 09:52:12;;;;;;;;;;;;;;;19.29;67.71;100950.13;7409222;19;1470;-67
2022/11/25 09:54:41;;;;;;;;;;;;;;;19.24;67.70;100947.88;7408855;19;1648;-76
2022/11/25 09:57:21;;;;;;;;;;;;;;;19.22;68.82;100955.19;7407715;19;1857;-62
2022/11/25 09:59:53;;;;;;;;;;;;;;;19.57;68.79;100945.88;7408524;19;1548;-60
2022/11/25 10:02:25;;;;;;;;;;;;;;;19.60;68.90;100951.00;7407270;19;1477;-60
2022/11/25 10:04:58;;;;;;;;;;;;;;;19.51;69.14;100953.63;7407329;19;1011;-61
2022/11/25 10:07:36;;;;;;;;;;;;;;;19.55;69.01;100938.97;7407842;19;1494;-60
2022/11/25 10:10:06;;;;;;;;;;;;;;;19.51;69.55;100942.91;7408946;19;1681;-60
2022/11/25 10:12:36;;;;;;;;;;;;;;;19.42;69.49;100944.56;7408039;19;1600;-61
2022/11/25 10:15:06;;;;;;;;;;;;;;;19.35;69.56;100946.91;7408628;19;1569;-61
2022/11/25 10:17:39;;;;;;;;;;;;;;;19.30;69.88;100932.19;7406262;19;1844;-61
2022/11/25 10:20:14;;;;;;;;;;;;;;;19.21;70.15;100937.38;7408910;19;1494;-62
2022/11/25 10:22:47;;;;;;;;;;;;;;;19.20;70.20;100946.44;7408019;19;1468;-61
2022/11/25 10:25:18;;;;;;;;;;;;;;;19.15;70.29;100942.44;7409071;19;1423;-61
2022/11/25 10:27:49;;;;;;;;;;;;;;;19.19;70.62;100911.69;7407950;19;1544;-62
2022/11/25 10:30:20;;;;;;;;;;;;;;;19.27;70.54;100941.38;7407779;19;1521;-61
2022/11/25 10:32:51;;;;;;;;;;;;;;;19.39;69.78;100937.63;7410139;19;1553;-63
2022/11/25 10:35:26;;;;;;;;;;;;;;;19.47;69.41;100939.63;7408947;19;1465;-62
2022/11/25 10:37:58;;;;;;;;;;;;;;;19.39;69.75;100912.66;7406795;19;1849;-63
2022/11/25 10:40:27;;;;;;;;;;;;;;;19.24;69.80;100920.22;7408673;19;1508;-63
2022/11/25 10:42:55;;;;;;;;;;;;;;;19.28;69.83;100927.84;7408237;19;1625;-61
2022/11/25 10:45:27;;;;;;;;;;;;;;;19.30;69.44;100927.72;7405960;19;1481;-64
2022/11/25 10:48:08;;;;;;;;;;;;;;;19.26;70.21;100939.69;7407935;19;1467;-60
2022/11/25 10:50:41;;;;;;;;;;;;;;;19.21;70.75;100936.53;7408416;19;996;-66
2022/11/25 10:53:17;;;;;;;;;;;;;;;19.23;71.12;100930.06;7407361;19;1463;-64
2022/11/25 10:55:58;;;;;;;;;;;;;;;19.21;71.52;100926.66;7403205;19;1344;-61
2022/11/25 10:58:32;;;;;;;;;;;;;;;19.24;71.40;100941.66;7404989;19;1868;-74
2022/11/25 11:01:05;;;;;;;;;;;;;;;19.60;70.60;100942.94;7407206;19;1450;-70
2022/11/25 11:03:34;;;;;;;;;;;;;;;20.24;69.29;100940.88;7405902;19;1310;-73
2022/11/25 11:06:03;;;;;;;;;;;;;;;20.52;67.94;100954.47;7403257;19;1421;-64
2022/11/25 11:08:42;;;;;;;;;;;;;;;20.00;70.12;100923.31;7403635;19;1110;-64
2022/11/25 11:11:15;;;;;;;;;;;;;;;20.51;69.30;100918.69;7405055;19;1104;-64
2022/11/25 11:13:44;;;;;;;;;;;;;;;20.43;69.92;100931.97;7407198;19;1640;-61
2022/11/25 11:16:36;;;;;;;;;;;;;;;20.33;69.77;100931.97;7407583;19;1303;-62
2022/11/25 11:19:05;;;;;;;;;;;;;;;20.00;71.32;100942.13;7404743;19;1726;-72
2022/11/25 11:21:34;;;;;;;;;;;;;;;19.80;72.33;100943.06;7402064;19;1589;-75
2022/11/25 11:24:22;;;;;;;;;;;;;;;19.56;72.32;100941.53;7402023;19;1249;-75
2022/11/25 11:27:02;;;;;;;;;;;;;;;19.47;71.92;100936.94;7401129;19;1552;-72
2022/11/25 11:29:30;;;;;;;;;;;;;;;19.34;73.30;100952.41;7404864;19;1237;-72
2022/11/25 11:32:01;;;;;;;;;;;;;;;19.25;73.74;100935.28;7404956;19;1203;-73
2022/11/25 11:34:38;;;;;;;;;;;;;;;19.21;74.10;100941.91;7404338;19;1309;-74
2022/11/25 11:37:19;;;;;;;;;;;;;;;19.13;74.88;100947.09;7405115;19;1839;-73
2022/11/25 11:40:00;;;;;;;;;;;;;;;19.07;74.90;100941.25;7403275;19;1363;-74
2022/11/25 11:42:34;;;;;;;;;;;;;;;19.04;74.50;100948.75;7406342;19;1422;-73
2022/11/25 11:45:06;;;;;;;;;;;;;;;19.01;74.23;100948.97;7403999;19;1232;-74
2022/11/25 11:47:42;;;;;;;;;;;;;;;18.99;74.30;100941.06;7404207;19;1415;-64
2022/11/25 11:50:20;;;;;;;;;;;;;;;19.03;73.84;100944.34;7404494;19;1711;-63
2022/11/25 11:52:55;;;;;;;;;;;;;;;19.00;74.06;100955.31;7403100;19;1164;-64
2022/11/25 11:55:36;;;;;;;;;;;;;;;18.98;74.13;100951.91;7402165;19;1443;-62
2022/11/25 11:58:06;;;;;;;;;;;;;;;19.16;73.55;100965.56;7404232;19;1853;-63
2022/11/25 12:00:38;;;;;;;;;;;;;;;19.70;73.78;100947.50;7404718;19;1280;-63
2022/11/25 12:03:13;;;;;;;;;;;;;;;19.93;68.77;100943.63;7402676;19;1394;-62
2022/11/25 12:05:42;;;;;;;;;;;;;;;19.88;71.02;100923.59;7402434;19;1589;-62
2022/11/25 12:08:13;;;;;;;;;;;;;;;19.90;71.19;100948.44;6364302;19;10000352;-63
2022/11/25 12:10:46;;;;;;;;;;;;;;;20.21;71.55;100952.75;7399257;19;1364;-59
2022/11/25 12:13:17;;;;;;;;;;;;;;;20.26;71.79;100952.34;7398413;19;1458;-60
2022/11/25 12:15:49;;;;;;;;;;;;;;;20.35;72.19;100953.31;7398408;19;1544;-65
2022/11/25 12:18:22;;;;;;;;;;;;;;;20.68;71.17;100944.03;7396889;19;1865;-64
2022/11/25 12:20:54;;;;;;;;;;;;;;;20.56;71.58;100961.28;7401077;19;1520;-66
2022/11/25 12:23:25;;;;;;;;;;;;;;;20.63;72.74;100951.66;7399241;19;1533;-63
2022/11/25 12:26:00;;;;;;;;;;;;;;;20.70;72.85;100947.44;7399058;19;1724;-63
2022/11/25 12:28:31;;;;;;;;;;;;;;;20.24;73.16;100946.25;7397157;19;1595;-61
2022/11/25 12:31:04;;;;;;;;;;;;;;;19.90;74.89;100953.81;7396978;19;1644;-66
2022/11/25 12:33:41;;;;;;;;;;;;;;;19.60;75.37;100958.19;7396297;19;1291;-63
2022/11/25 12:36:12;;;;;;;;;;;;;;;19.39;76.01;100955.56;7397357;19;1247;-71
2022/11/25 12:38:44;;;;;;;;;;;;;;;19.37;76.40;100963.72;7396552;19;1907;-63
2022/11/25 12:41:21;;;;;;;;;;;;;;;19.32;76.15;100960.59;7397873;19;1247;-63
2022/11/25 12:43:52;;;;;;;;;;;;;;;19.33;76.01;100966.81;7396885;19;1599;-62
2022/11/25 12:46:24;;;;;;;;;;;;;;;19.28;75.70;100943.09;7397118;19;1489;-63
2022/11/25 12:48:53;;;;;;;;;;;;;;;19.28;76.06;100959.19;7395475;19;1363;-68
2022/11/25 12:51:32;;;;;;;;;;;;;;;19.23;76.32;100962.22;7398470;19;1621;-66
2022/11/25 12:54:05;;;;;;;;;;;;;;;19.11;76.19;100957.09;7395099;19;1637;-66
2022/11/25 12:56:45;;;;;;;;;;;;;;;18.98;75.06;100957.28;7396478;19;1600;-63
2022/11/25 12:59:31;;;;;;;;;;;;;;;19.00;75.93;100949.94;7396533;19;1912;-64
2022/11/25 13:02:06;;;;;;;;;;;;;;;19.00;75.65;100956.19;7395884;19;1545;-65
2022/11/25 13:04:46;;;;;;;;;;;;;;;19.04;76.12;100968.34;7396642;19;1572;-69
2022/11/25 13:07:23;;;;;;;;;;;;;;;18.98;75.78;100954.59;7401251;19;1605;-71
2022/11/25 13:10:07;;;;;;;;;;;;;;;18.94;75.79;100967.44;7401083;19;1457;-71
2022/11/25 13:12:45;;;;;;;;;;;;;;;18.99;75.94;100970.53;7402356;19;1578;-71